Darstellungsparameter: Aktuell verwendete Einstellungen:
Skalierung der Graphiken ... ?
xyx+y,   Skalierungsfaktor:      Skalierung: Modus: x, Faktor: 1
Darstellungszeitraum ... ?
Vom - - bis: - -   Zeitraum: 29.05.2010 - 28.06.2010
Min/Max/Avg-Anzeige ... ?
Zeige MMA aktuell
Zeige MMA Monat
Zeige MMA alles
Zeige --A aktuell
Zeige --A Monat
Zeige --A alles
Keine MMA-Anzeige
MMA:
Average (ber die Originaldaten)
MMA-Basis: 29.05.2010 - 28.06.2010
Quicknavigation für Darstellung... ?
Tage:      1T, 2T, 3T, 5T -1T -2T -3T -5T +1T +2T +3T +5T
Wochen: 1W, 2W, 3W -1W -2W -3W +1W +2W +3W
Monate: 1M, 3M, 6M -1M -3M -6M +1M +3M +6M
Jahre:    1J, 3J, 5J, 10J -1J -3J -5J -10J +1J +3J +5J +10J
Nutze für die Darstellung ... ?
Originaldaten oder ...
Mittelwerte Minima Maxima auf...
Stundenbasis Tagesbasis Wochenbasis
Monatsbasis Jahresbasis      Datenbasis: Mittelwerte auf Stundenbasis
Darstellen als:
Statistik (Auto) Statistik J:M      Darstellung:
Zur Graphik,    zurück zur Übersicht aller Sensoren.
 
Tabellarische Datenbersicht: ?
 
Sensor: Nr:Datum:Temp:Abs-Feuchte:Windchill:Wind:
Aussen-T/F 1 29-05-2010 00:00:00 12.86 C 6.63 g/m*3 12.86 C 0 km/h
2 29-05-2010 01:00:00 11.92 C 6.77 g/m*3 11.92 C 0 km/h
3 29-05-2010 02:00:00 10.82 C 6.95 g/m*3 10.82 C 0 km/h
4 29-05-2010 03:00:00 9.98 C 7.02 g/m*3 9.98 C 0 km/h
5 29-05-2010 04:00:00 9.7 C 7.08 g/m*3 9.7 C 0 km/h
6 29-05-2010 05:00:00 9.48 C 7 g/m*3 9.48 C 0 km/h
7 29-05-2010 06:00:00 9.78 C 7.13 g/m*3 9.78 C 0 km/h
8 29-05-2010 07:00:00 10.18 C 7.15 g/m*3 10.18 C 0 km/h
9 29-05-2010 08:00:00 11.24 C 7.19 g/m*3 11.24 C 0 km/h
10 29-05-2010 09:00:00 12.86 C 7.06 g/m*3 12.86 C 0 km/h
11 29-05-2010 10:00:00 16.9 C 7.11 g/m*3 16.9 C 0 km/h
12 29-05-2010 11:00:00 18.66 C 7.32 g/m*3 18.66 C 0 km/h
13 29-05-2010 12:00:00 21.72 C 5.46 g/m*3 21.72 C 0 km/h
14 29-05-2010 13:00:00 24.84 C 4.84 g/m*3 24.84 C 0 km/h
15 29-05-2010 14:00:00 23.42 C 5.31 g/m*3 23.42 C 0 km/h
16 29-05-2010 15:00:00 23.02 C 5.35 g/m*3 23.02 C 0 km/h
17 29-05-2010 16:00:00 24.42 C 4.99 g/m*3 24.42 C 0 km/h
18 29-05-2010 17:00:00 23.96 C 5.95 g/m*3 23.96 C 0 km/h
19 29-05-2010 18:00:00 21.7 C 6.03 g/m*3 21.7 C 0 km/h
20 29-05-2010 19:00:00 20.66 C 5.35 g/m*3 20.66 C 0 km/h
21 29-05-2010 20:00:00 19.3 C 5.97 g/m*3 19.3 C 0 km/h
22 29-05-2010 21:00:00 17.06 C 6.83 g/m*3 17.06 C 0 km/h
23 29-05-2010 22:00:00 13.96 C 9.07 g/m*3 13.96 C 0 km/h
24 29-05-2010 23:00:00 13.72 C 8.92 g/m*3 13.72 C 0 km/h
25 30-05-2010 00:00:00 13.38 C 9.36 g/m*3 13.38 C 0 km/h
Sensor: Nr:Datum:Temp:Abs-Feuchte:Windchill:Wind:
Aussen-T/F 26 30-05-2010 01:00:00 13.2 C 9.48 g/m*3 13.2 C 0 km/h
27 30-05-2010 02:00:00 12.9 C 10.03 g/m*3 12.9 C 0 km/h
28 30-05-2010 03:00:00 12.9 C 10.28 g/m*3 12.9 C 0 km/h
29 30-05-2010 04:00:00 12.8 C 10.28 g/m*3 12.8 C 0 km/h
30 30-05-2010 05:00:00 12.96 C 10.25 g/m*3 12.96 C 0 km/h
31 30-05-2010 06:00:00 13.36 C 10.25 g/m*3 13.36 C 0 km/h
32 30-05-2010 07:00:00 13.8 C 10.44 g/m*3 13.8 C 0 km/h
33 30-05-2010 08:00:00 14.66 C 10.07 g/m*3 14.66 C 0 km/h
34 30-05-2010 09:00:00 15.62 C 10.01 g/m*3 15.62 C 0 km/h
35 30-05-2010 10:00:00 14.98 C 10.19 g/m*3 14.98 C 0 km/h
36 30-05-2010 11:00:00 17.44 C 9.15 g/m*3 17.44 C 0 km/h
37 30-05-2010 12:00:00 18 C 8.11 g/m*3 18 C 0 km/h
38 30-05-2010 13:00:00 17.94 C 7.56 g/m*3 17.94 C 0 km/h
39 30-05-2010 14:00:00 18 C 8.23 g/m*3 18 C 0 km/h
40 30-05-2010 15:00:00 19.18 C 7.71 g/m*3 19.18 C 0 km/h
41 30-05-2010 16:00:00 19.4 C 6.91 g/m*3 19.4 C 0 km/h
42 30-05-2010 17:00:00 16.3 C 8.35 g/m*3 16.3 C 0 km/h
43 30-05-2010 18:00:00 14.42 C 9.6 g/m*3 14.42 C 0 km/h
44 30-05-2010 19:00:00 13.16 C 9.51 g/m*3 13.16 C 0 km/h
45 30-05-2010 20:00:00 12.46 C 7.33 g/m*3 12.46 C 0 km/h
46 30-05-2010 21:00:00 11.74 C 6.63 g/m*3 11.74 C 0 km/h
47 30-05-2010 22:00:00 11.14 C 6.14 g/m*3 11.14 C 0 km/h
48 30-05-2010 23:00:00 10.6 C 5.76 g/m*3 10.6 C 0 km/h
49 31-05-2010 00:00:00 9.88 C 5.86 g/m*3 9.88 C 0 km/h
50 31-05-2010 01:00:00 9.84 C 6.18 g/m*3 9.84 C 0 km/h
Sensor: Nr:Datum:Temp:Abs-Feuchte:Windchill:Wind:
Aussen-T/F 51 31-05-2010 02:00:00 8.94 C 7.5 g/m*3 8.94 C 0 km/h
52 31-05-2010 03:00:00 8.62 C 7.74 g/m*3 8.62 C 0 km/h
53 31-05-2010 04:00:00 8.52 C 7.71 g/m*3 8.52 C 0 km/h
54 31-05-2010 05:00:00 8.54 C 7.7 g/m*3 8.54 C 0 km/h
55 31-05-2010 06:00:00 8.72 C 7.9 g/m*3 8.72 C 0 km/h
56 31-05-2010 07:00:00 8.94 C 8.1 g/m*3 8.94 C 0 km/h
57 31-05-2010 08:00:00 9.88 C 8.5 g/m*3 9.88 C 0 km/h
58 31-05-2010 09:00:00 10.8 C 8.38 g/m*3 10.8 C 0 km/h
59 31-05-2010 10:00:00 11.06 C 8.34 g/m*3 11.06 C 0 km/h
60 31-05-2010 11:00:00 11.96 C 8.36 g/m*3 11.96 C 0 km/h
61 31-05-2010 12:00:00 13.78 C 7.64 g/m*3 13.78 C 0 km/h
62 31-05-2010 13:00:00 14.32 C 7.33 g/m*3 14.32 C 0 km/h
63 31-05-2010 14:00:00 14.96 C 7.32 g/m*3 14.96 C 0 km/h
64 31-05-2010 15:00:00 14.76 C 7.56 g/m*3 14.76 C 0 km/h
65 31-05-2010 16:00:00 13.96 C 8.09 g/m*3 13.96 C 0 km/h
66 31-05-2010 17:00:00 14.18 C 7.93 g/m*3 14.18 C 0 km/h
67 31-05-2010 18:00:00 13.1 C 8.7 g/m*3 13.1 C 0 km/h
68 31-05-2010 19:00:00 12.7 C 9.24 g/m*3 12.7 C 0 km/h
69 31-05-2010 20:00:00 12.48 C 9.51 g/m*3 12.48 C 0 km/h
70 31-05-2010 21:00:00 12.5 C 9.54 g/m*3 12.5 C 0 km/h
71 31-05-2010 22:00:00 12.54 C 9.77 g/m*3 12.54 C 0 km/h
72 31-05-2010 23:00:00 12.62 C 9.75 g/m*3 12.62 C 0 km/h
73 01-06-2010 00:00:00 11.7 C 9.41 g/m*3 11.7 C 0 km/h
74 01-06-2010 01:00:00 11.44 C 9.47 g/m*3 11.44 C 0 km/h
75 01-06-2010 02:00:00 10.92 C 9.24 g/m*3 10.92 C 0 km/h
Sensor: Nr:Datum:Temp:Abs-Feuchte:Windchill:Wind:
Aussen-T/F 76 01-06-2010 03:00:00 11.38 C 9.62 g/m*3 11.38 C 0 km/h
77 01-06-2010 04:00:00 11.06 C 9.34 g/m*3 11.06 C 0 km/h
78 01-06-2010 05:00:00 11.18 C 9.44 g/m*3 11.18 C 0 km/h
79 01-06-2010 06:00:00 11.22 C 9.3 g/m*3 11.22 C 0 km/h
80 01-06-2010 07:00:00 12.04 C 9.34 g/m*3 12.04 C 0 km/h
81 01-06-2010 08:00:00 13.68 C 9.32 g/m*3 13.68 C 0 km/h
82 01-06-2010 09:00:00 15 C 8.92 g/m*3 15 C 0 km/h
83 01-06-2010 10:00:00 15.08 C 8.63 g/m*3 15.08 C 0 km/h
84 01-06-2010 11:00:00 17.08 C 8.17 g/m*3 17.08 C 0 km/h
85 01-06-2010 12:00:00 19.42 C 7.22 g/m*3 19.42 C 0 km/h
86 01-06-2010 13:00:00 20.58 C 6.69 g/m*3 20.58 C 0 km/h
87 01-06-2010 14:00:00 20.98 C 6.37 g/m*3 20.98 C 0 km/h
88 01-06-2010 15:00:00 22.14 C 5.36 g/m*3 22.14 C 0 km/h
89 01-06-2010 16:00:00 22.8 C 4.96 g/m*3 22.8 C 0 km/h
90 01-06-2010 17:00:00 22.5 C 5.27 g/m*3 22.5 C 0 km/h
91 01-06-2010 18:00:00 20.56 C 5.11 g/m*3 20.56 C 0 km/h
92 01-06-2010 19:00:00 19.54 C 6.09 g/m*3 19.54 C 0 km/h
93 01-06-2010 20:00:00 18.2 C 7.06 g/m*3 18.2 C 0 km/h
94 01-06-2010 21:00:00 16.16 C 7.1 g/m*3 16.16 C 0 km/h
95 01-06-2010 22:00:00 15.04 C 7.38 g/m*3 15.04 C 0 km/h
96 01-06-2010 23:00:00 14.74 C 7.75 g/m*3 14.74 C 0 km/h
97 02-06-2010 00:00:00 14.44 C 8.35 g/m*3 14.44 C 0 km/h
98 02-06-2010 01:00:00 14.22 C 8.39 g/m*3 14.22 C 0 km/h
99 02-06-2010 02:00:00 13.58 C 8.7 g/m*3 13.58 C 0 km/h
100 02-06-2010 03:00:00 13.34 C 8.8 g/m*3 13.34 C 0 km/h
Sensor: Nr:Datum:Temp:Abs-Feuchte:Windchill:Wind:
Aussen-T/F 101 02-06-2010 04:00:00 13.36 C 8.4 g/m*3 13.36 C 0 km/h
102 02-06-2010 05:00:00 13.3 C 8.39 g/m*3 13.3 C 0 km/h
103 02-06-2010 06:00:00 13.28 C 8.56 g/m*3 13.28 C 0 km/h
104 02-06-2010 07:00:00 13.84 C 8.58 g/m*3 13.84 C 0 km/h
105 02-06-2010 08:00:00 15.1 C 8.15 g/m*3 15.1 C 0 km/h
106 02-06-2010 09:00:00 15.08 C 7.73 g/m*3 15.08 C 0 km/h
107 02-06-2010 10:00:00 17.56 C 6.49 g/m*3 17.56 C 0 km/h
108 02-06-2010 11:00:00 19.3 C 6 g/m*3 19.3 C 0 km/h
109 02-06-2010 12:00:00 21.86 C 5.31 g/m*3 21.86 C 0 km/h
110 02-06-2010 13:00:00 23.68 C 4.61 g/m*3 23.68 C 0 km/h
111 02-06-2010 14:00:00 23.5 C 4.44 g/m*3 23.5 C 0 km/h
112 02-06-2010 15:00:00 22.58 C 5.58 g/m*3 22.58 C 0 km/h
113 02-06-2010 16:00:00 21.08 C 6.74 g/m*3 21.08 C 0 km/h
114 02-06-2010 17:00:00 20.44 C 7.09 g/m*3 20.44 C 0 km/h
115 02-06-2010 18:00:00 21.46 C 7.07 g/m*3 21.46 C 0 km/h
116 02-06-2010 19:00:00 20.68 C 7.37 g/m*3 20.68 C 0 km/h
117 02-06-2010 20:00:00 19.78 C 7.61 g/m*3 19.78 C 0 km/h
118 02-06-2010 21:00:00 18.34 C 7.96 g/m*3 18.34 C 0 km/h
119 02-06-2010 22:00:00 17.725 C 8.27 g/m*3 17.73 C 0 km/h
120 02-06-2010 23:00:00 16.44 C 8.39 g/m*3 16.44 C 0 km/h
121 03-06-2010 00:00:00 15.62 C 8.49 g/m*3 15.62 C 0 km/h
122 03-06-2010 01:00:00 14.96 C 8.7 g/m*3 14.96 C 0 km/h
123 03-06-2010 02:00:00 14.42 C 8.69 g/m*3 14.42 C 0 km/h
124 03-06-2010 03:00:00 14.02 C 8.53 g/m*3 14.02 C 0 km/h
125 03-06-2010 04:00:00 13.2 C 8.36 g/m*3 13.2 C 0 km/h
Sensor: Nr:Datum:Temp:Abs-Feuchte:Windchill:Wind:
Aussen-T/F 126 03-06-2010 05:00:00 12.7 C 8.33 g/m*3 12.7 C 0 km/h
127 03-06-2010 06:00:00 12.6 C 8.36 g/m*3 12.6 C 0 km/h
128 03-06-2010 07:00:00 13.08 C 8.3 g/m*3 13.08 C 0 km/h
129 03-06-2010 08:00:00 13.98 C 7.93 g/m*3 13.98 C 0 km/h
130 03-06-2010 09:00:00 15.94 C 7.44 g/m*3 15.94 C 0 km/h
131 03-06-2010 10:00:00 18.62 C 6.95 g/m*3 18.62 C 0 km/h
132 03-06-2010 11:00:00 21.14 C 6.24 g/m*3 21.14 C 0 km/h
133 03-06-2010 12:00:00 24.16 C 5.62 g/m*3 24.16 C 0 km/h
134 03-06-2010 13:00:00 26.36 C 5.27 g/m*3 26.36 C 0 km/h
135 03-06-2010 14:00:00 25.98 C 4.86 g/m*3 25.98 C 0 km/h
136 03-06-2010 15:00:00 27.94 C 5.42 g/m*3 27.94 C 0 km/h
137 03-06-2010 16:00:00 29.48 C 5.9 g/m*3 29.48 C 0 km/h
138 03-06-2010 17:00:00 29.98 C 6.06 g/m*3 29.98 C 0 km/h
139 03-06-2010 18:00:00 28.98 C 5.74 g/m*3 28.98 C 0 km/h
140 03-06-2010 19:00:00 29.08 C 5.77 g/m*3 29.08 C 0 km/h
141 03-06-2010 20:00:00 27 C 5.35 g/m*3 27 C 0 km/h
142 03-06-2010 21:00:00 23.74 C 6.6 g/m*3 23.74 C 0 km/h
143 03-06-2010 22:00:00 20.16 C 6.45 g/m*3 20.16 C 0 km/h
144 03-06-2010 23:00:00 18.64 C 6.57 g/m*3 18.64 C 0 km/h
145 04-06-2010 00:00:00 17.44 C 6.86 g/m*3 17.44 C 0 km/h
146 04-06-2010 01:00:00 15.9 C 7.04 g/m*3 15.9 C 0 km/h
147 04-06-2010 02:00:00 14.64 C 7.23 g/m*3 14.64 C 0 km/h
148 04-06-2010 03:00:00 13.64 C 7.43 g/m*3 13.64 C 0 km/h
149 04-06-2010 04:00:00 12.78 C 7.61 g/m*3 12.78 C 0 km/h
150 04-06-2010 05:00:00 12.12 C 7.6 g/m*3 12.12 C 0 km/h
Sensor: Nr:Datum:Temp:Abs-Feuchte:Windchill:Wind:
Aussen-T/F 151 04-06-2010 06:00:00 11.94 C 7.84 g/m*3 11.94 C 0 km/h
152 04-06-2010 07:00:00 12.44 C 8.04 g/m*3 12.44 C 0 km/h
153 04-06-2010 08:00:00 13.72 C 8.28 g/m*3 13.72 C 0 km/h
154 04-06-2010 09:00:00 16.78 C 8.37 g/m*3 16.78 C 0 km/h
155 04-06-2010 10:00:00 20.06 C 8.12 g/m*3 20.06 C 0 km/h
156 04-06-2010 11:00:00 22.1 C 7.18 g/m*3 22.1 C 0 km/h
157 04-06-2010 12:00:00 25.82 C 5.88 g/m*3 25.82 C 0 km/h
158 04-06-2010 13:00:00 28.98 C 5.91 g/m*3 28.98 C 0 km/h
159 04-06-2010 14:00:00 27.9 C 5.68 g/m*3 27.9 C 0 km/h
160 04-06-2010 15:00:00 29.14 C 5.79 g/m*3 29.14 C 0 km/h
161 04-06-2010 16:00:00 30.38 C 6.19 g/m*3 30.38 C 0 km/h
162 04-06-2010 17:00:00 31.04 C 6.41 g/m*3 31.04 C 0 km/h
163 04-06-2010 18:00:00 31.88 C 6.71 g/m*3 31.88 C 0 km/h
164 04-06-2010 19:00:00 30.44 C 6.21 g/m*3 30.44 C 0 km/h
165 04-06-2010 20:00:00 29.04 C 5.87 g/m*3 29.04 C 0 km/h
166 04-06-2010 21:00:00 24.3 C 6.28 g/m*3 24.3 C 0 km/h
167 04-06-2010 22:00:00 22.02 C 6.88 g/m*3 22.02 C 0 km/h
168 04-06-2010 23:00:00 19.82 C 7.56 g/m*3 19.82 C 0 km/h
169 05-06-2010 00:00:00 18.16 C 7.91 g/m*3 18.16 C 0 km/h
170 05-06-2010 01:00:00 17.14 C 7.97 g/m*3 17.14 C 0 km/h
171 05-06-2010 02:00:00 15.82 C 8.17 g/m*3 15.82 C 0 km/h
172 05-06-2010 03:00:00 14.84 C 8.43 g/m*3 14.84 C 0 km/h
173 05-06-2010 04:00:00 14.34 C 8.35 g/m*3 14.34 C 0 km/h
174 05-06-2010 05:00:00 13.44 C 8.27 g/m*3 13.44 C 0 km/h
175 05-06-2010 06:00:00 13.12 C 8.45 g/m*3 13.12 C 0 km/h
Sensor: Nr:Datum:Temp:Abs-Feuchte:Windchill:Wind:
Aussen-T/F 176 05-06-2010 07:00:00 13.76 C 8.58 g/m*3 13.76 C 0 km/h
177 05-06-2010 08:00:00 15.12 C 8.42 g/m*3 15.12 C 0 km/h
178 05-06-2010 09:00:00 17.9 C 8.64 g/m*3 17.9 C 0 km/h
179 05-06-2010 10:00:00 21.54 C 9 g/m*3 21.54 C 0 km/h
180 05-06-2010 11:00:00 25.04 C 8.44 g/m*3 25.04 C 0 km/h
181 05-06-2010 12:00:00 28.26 C 6.45 g/m*3 28.26 C 0 km/h
182 05-06-2010 13:00:00 30.56 C 6.25 g/m*3 30.56 C 0 km/h
183 05-06-2010 14:00:00 30.24 C 6.14 g/m*3 30.24 C 0 km/h
184 05-06-2010 15:00:00 31.8 C 6.68 g/m*3 31.8 C 0 km/h
185 05-06-2010 16:00:00 32.68 C 7 g/m*3 32.68 C 0 km/h
186 05-06-2010 17:00:00 33.16 C 7.18 g/m*3 33.16 C 0 km/h
187 05-06-2010 18:00:00 33.08 C 7.15 g/m*3 33.08 C 0 km/h
188 05-06-2010 19:00:00 31.78 C 7.07 g/m*3 31.78 C 0 km/h
189 05-06-2010 20:00:00 29.04 C 7.83 g/m*3 29.04 C 0 km/h
190 05-06-2010 21:00:00 25.36 C 7.75 g/m*3 25.36 C 0 km/h
191 05-06-2010 22:00:00 23.38 C 8.28 g/m*3 23.38 C 0 km/h
192 05-06-2010 23:00:00 21.88 C 8.29 g/m*3 21.88 C 0 km/h
193 06-06-2010 00:00:00 20.7 C 8.64 g/m*3 20.7 C 0 km/h
194 06-06-2010 01:00:00 19.28 C 8.95 g/m*3 19.28 C 0 km/h
195 06-06-2010 02:00:00 18.18 C 9.31 g/m*3 18.18 C 0 km/h
196 06-06-2010 03:00:00 17.36 C 9.23 g/m*3 17.36 C 0 km/h
197 06-06-2010 04:00:00 16.4 C 9.13 g/m*3 16.4 C 0 km/h
198 06-06-2010 05:00:00 15.46 C 9.2 g/m*3 15.46 C 0 km/h
199 06-06-2010 06:00:00 15.32 C 9.41 g/m*3 15.32 C 0 km/h
200 06-06-2010 07:00:00 16.06 C 9.52 g/m*3 16.06 C 0 km/h
Sensor: Nr:Datum:Temp:Abs-Feuchte:Windchill:Wind:
Aussen-T/F 201 06-06-2010 08:00:00 17.32 C 9.32 g/m*3 17.32 C 0 km/h
202 06-06-2010 09:00:00 19.54 C 8.98 g/m*3 19.54 C 0 km/h
203 06-06-2010 10:00:00 23.1 C 9.38 g/m*3 23.1 C 0 km/h
204 06-06-2010 11:00:00 27.14 C 9.6 g/m*3 27.14 C 0 km/h
205 06-06-2010 12:00:00 29.56 C 8.71 g/m*3 29.56 C 0 km/h
206 06-06-2010 13:00:00 30.1 C 8.23 g/m*3 30.1 C 0 km/h
207 06-06-2010 14:00:00 30.16 C 8.32 g/m*3 30.16 C 0 km/h
208 06-06-2010 15:00:00 31.12 C 7.73 g/m*3 31.12 C 0 km/h
209 06-06-2010 16:00:00 23.76 C 10.65 g/m*3 23.76 C 0 km/h
210 06-06-2010 17:00:00 18.7 C 13.61 g/m*3 18.7 C 0 km/h
211 06-06-2010 18:00:00 19.2 C 14.21 g/m*3 19.2 C 0 km/h
212 06-06-2010 19:00:00 19.22 C 14.23 g/m*3 19.22 C 0 km/h
213 06-06-2010 20:00:00 19 C 14.15 g/m*3 19 C 0 km/h
214 06-06-2010 21:00:00 18.6 C 13.85 g/m*3 18.6 C 0 km/h
215 06-06-2010 22:00:00 18.34 C 13.67 g/m*3 18.34 C 0 km/h
216 06-06-2010 23:00:00 18.3 C 13.51 g/m*3 18.3 C 0 km/h
217 07-06-2010 00:00:00 17.92 C 13.45 g/m*3 17.92 C 0 km/h
218 07-06-2010 01:00:00 17.82 C 13.77 g/m*3 17.82 C 0 km/h
219 07-06-2010 02:00:00 17.36 C 12.48 g/m*3 17.36 C 0 km/h
220 07-06-2010 03:00:00 15.46 C 10.07 g/m*3 15.46 C 0 km/h
221 07-06-2010 04:00:00 14 C 9.09 g/m*3 14 C 0 km/h
222 07-06-2010 05:00:00 13.6 C 9.16 g/m*3 13.6 C 0 km/h
223 07-06-2010 06:00:00 14.4 C 9.37 g/m*3 14.4 C 0 km/h
224 07-06-2010 07:00:00 15.04 C 9.18 g/m*3 15.04 C 0 km/h
225 07-06-2010 08:00:00 15.54 C 9.33 g/m*3 15.54 C 0 km/h
Sensor: Nr:Datum:Temp:Abs-Feuchte:Windchill:Wind:
Aussen-T/F 226 07-06-2010 09:00:00 17.08 C 9.22 g/m*3 17.08 C 0 km/h
227 07-06-2010 10:00:00 18.32 C 8.95 g/m*3 18.32 C 0 km/h
228 07-06-2010 11:00:00 19.46 C 8.71 g/m*3 19.46 C 0 km/h
229 07-06-2010 12:00:00 21.94 C 7.93 g/m*3 21.94 C 0 km/h
230 07-06-2010 13:00:00 23.78 C 7.26 g/m*3 23.78 C 0 km/h
231 07-06-2010 14:00:00 24 C 6.96 g/m*3 24 C 0 km/h
232 07-06-2010 15:00:00 24.3 C 6.64 g/m*3 24.3 C 0 km/h
233 07-06-2010 16:00:00 25.22 C 6.39 g/m*3 25.22 C 0 km/h
234 07-06-2010 17:00:00 24.66 C 5.96 g/m*3 24.66 C 0 km/h
235 07-06-2010 18:00:00 25.92 C 5.28 g/m*3 25.92 C 0 km/h
236 07-06-2010 19:00:00 25.44 C 5.29 g/m*3 25.44 C 0 km/h
237 07-06-2010 20:00:00 23.08 C 5.99 g/m*3 23.08 C 0 km/h
238 07-06-2010 21:00:00 20.04 C 6.79 g/m*3 20.04 C 0 km/h
239 07-06-2010 22:00:00 18.48 C 7.33 g/m*3 18.48 C 0 km/h
240 07-06-2010 23:00:00 17.26 C 8.08 g/m*3 17.26 C 0 km/h
241 08-06-2010 00:00:00 16.34 C 8.48 g/m*3 16.34 C 0 km/h
242 08-06-2010 01:00:00 15.22 C 8.5 g/m*3 15.22 C 0 km/h
243 08-06-2010 02:00:00 14.26 C 8.36 g/m*3 14.26 C 0 km/h
244 08-06-2010 03:00:00 13.84 C 8.36 g/m*3 13.84 C 0 km/h
245 08-06-2010 04:00:00 13.2 C 8.22 g/m*3 13.2 C 0 km/h
246 08-06-2010 05:00:00 13.4 C 8.42 g/m*3 13.4 C 0 km/h
247 08-06-2010 06:00:00 13.66 C 8.62 g/m*3 13.66 C 0 km/h
248 08-06-2010 07:00:00 14.36 C 8.8 g/m*3 14.36 C 0 km/h
249 08-06-2010 08:00:00 16.5 C 8.9 g/m*3 16.5 C 0 km/h
250 08-06-2010 09:00:00 19.18 C 8.96 g/m*3 19.18 C 0 km/h
Sensor: Nr:Datum:Temp:Abs-Feuchte:Windchill:Wind:
Aussen-T/F 251 08-06-2010 10:00:00 21.92 C 8.73 g/m*3 21.92 C 0 km/h
252 08-06-2010 11:00:00 25.46 C 8.08 g/m*3 25.46 C 0 km/h
253 08-06-2010 12:00:00 27.92 C 7.2 g/m*3 27.92 C 0 km/h
254 08-06-2010 13:00:00 27.58 C 6.75 g/m*3 27.58 C 0 km/h
255 08-06-2010 14:00:00 26.28 C 8.21 g/m*3 26.28 C 0 km/h
256 08-06-2010 15:00:00 26.36 C 8.4 g/m*3 26.36 C 0 km/h
257 08-06-2010 16:00:00 22.62 C 8.49 g/m*3 22.62 C 0 km/h
258 08-06-2010 17:00:00 20.84 C 10.49 g/m*3 20.84 C 0 km/h
259 08-06-2010 18:00:00 23.06 C 10.15 g/m*3 23.06 C 0 km/h
260 08-06-2010 19:00:00 23.2 C 10.15 g/m*3 23.2 C 0 km/h
261 08-06-2010 20:00:00 22 C 10.44 g/m*3 22 C 0 km/h
262 08-06-2010 21:00:00 20.6 C 10.85 g/m*3 20.6 C 0 km/h
263 08-06-2010 22:00:00 18.56 C 12.29 g/m*3 18.56 C 0 km/h
264 08-06-2010 23:00:00 18.08 C 12.5 g/m*3 18.08 C 0 km/h
265 09-06-2010 00:00:00 17.74 C 12.55 g/m*3 17.74 C 0 km/h
266 09-06-2010 01:00:00 17.68 C 12.33 g/m*3 17.68 C 0 km/h
267 09-06-2010 02:00:00 17.08 C 11.86 g/m*3 17.08 C 0 km/h
268 09-06-2010 03:00:00 17.06 C 12.08 g/m*3 17.06 C 0 km/h
269 09-06-2010 04:00:00 16.96 C 12.07 g/m*3 16.96 C 0 km/h
270 09-06-2010 05:00:00 16.84 C 12.01 g/m*3 16.84 C 0 km/h
271 09-06-2010 06:00:00 17.06 C 11.97 g/m*3 17.06 C 0 km/h
272 09-06-2010 07:00:00 18.2 C 12.25 g/m*3 18.2 C 0 km/h
273 09-06-2010 08:00:00 19.94 C 12.33 g/m*3 19.94 C 0 km/h
274 09-06-2010 09:00:00 21.8 C 11.86 g/m*3 21.8 C 0 km/h
275 09-06-2010 10:00:00 23.72 C 11.43 g/m*3 23.72 C 0 km/h
Sensor: Nr:Datum:Temp:Abs-Feuchte:Windchill:Wind:
Aussen-T/F 276 09-06-2010 11:00:00 25.56 C 10.17 g/m*3 25.56 C 0 km/h
277 09-06-2010 12:00:00 26.4 C 8.91 g/m*3 26.4 C 0 km/h
278 09-06-2010 13:00:00 26.72 C 8.97 g/m*3 26.72 C 0 km/h
279 09-06-2010 14:00:00 28.74 C 9.12 g/m*3 28.74 C 0 km/h
280 09-06-2010 15:00:00 29.54 C 8.16 g/m*3 29.54 C 0 km/h
281 09-06-2010 16:00:00 29.34 C 7.55 g/m*3 29.34 C 0 km/h
282 09-06-2010 17:00:00 27.86 C 9.18 g/m*3 27.86 C 0 km/h
283 09-06-2010 18:00:00 26.7 C 9.26 g/m*3 26.7 C 0 km/h
284 09-06-2010 19:00:00 26.16 C 9.73 g/m*3 26.16 C 0 km/h
285 09-06-2010 20:00:00 24.78 C 9.41 g/m*3 24.78 C 0 km/h
286 09-06-2010 21:00:00 23.4 C 9.21 g/m*3 23.4 C 0 km/h
287 09-06-2010 22:00:00 22.96 C 8.61 g/m*3 22.96 C 0 km/h
288 09-06-2010 23:00:00 19.26 C 12.51 g/m*3 19.26 C 0 km/h
289 10-06-2010 00:00:00 18.04 C 13.36 g/m*3 18.04 C 0 km/h
290 10-06-2010 01:00:00 17.6 C 13.59 g/m*3 17.6 C 0 km/h
291 10-06-2010 02:00:00 17.18 C 13.43 g/m*3 17.18 C 0 km/h
292 10-06-2010 03:00:00 16.98 C 13.21 g/m*3 16.98 C 0 km/h
293 10-06-2010 04:00:00 17.06 C 13.1 g/m*3 17.06 C 0 km/h
294 10-06-2010 05:00:00 16.88 C 13.16 g/m*3 16.88 C 0 km/h
295 10-06-2010 06:00:00 17.28 C 13.54 g/m*3 17.28 C 0 km/h
296 10-06-2010 07:00:00 17.9 C 13.86 g/m*3 17.9 C 0 km/h
297 10-06-2010 08:00:00 18.96 C 14.34 g/m*3 18.96 C 0 km/h
298 10-06-2010 09:00:00 19.46 C 14.27 g/m*3 19.46 C 0 km/h
299 10-06-2010 10:00:00 21.34 C 13.71 g/m*3 21.34 C 0 km/h
300 10-06-2010 11:00:00 22.12 C 12.82 g/m*3 22.12 C 0 km/h
Sensor: Nr:Datum:Temp:Abs-Feuchte:Windchill:Wind:
Aussen-T/F 301 10-06-2010 12:00:00 24.96 C 11.35 g/m*3 24.96 C 0 km/h
302 10-06-2010 13:00:00 27.26 C 10.76 g/m*3 27.26 C 0 km/h
303 10-06-2010 14:00:00 27.86 C 12.09 g/m*3 27.86 C 0 km/h
304 10-06-2010 15:00:00 28.3 C 11.83 g/m*3 28.3 C 0 km/h
305 10-06-2010 16:00:00 26.8 C 13.24 g/m*3 26.8 C 0 km/h
306 10-06-2010 17:00:00 28.94 C 12.71 g/m*3 28.94 C 0 km/h
307 10-06-2010 18:00:00 30.9 C 11.01 g/m*3 30.9 C 0 km/h
308 10-06-2010 19:00:00 31.24 C 11.73 g/m*3 31.24 C 0 km/h
309 10-06-2010 20:00:00 28.08 C 13.93 g/m*3 28.08 C 0 km/h
310 10-06-2010 21:00:00 24.96 C 12.82 g/m*3 24.96 C 0 km/h
311 10-06-2010 22:00:00 24.24 C 12.13 g/m*3 24.24 C 0 km/h
312 10-06-2010 23:00:00 22 C 11.49 g/m*3 22 C 0 km/h
313 11-06-2010 00:00:00 18.88 C 12.27 g/m*3 18.88 C 0 km/h
314 11-06-2010 01:00:00 17.84 C 13.51 g/m*3 17.84 C 0 km/h
315 11-06-2010 02:00:00 17.58 C 13.72 g/m*3 17.58 C 0 km/h
316 11-06-2010 03:00:00 17.4 C 13.75 g/m*3 17.4 C 0 km/h
317 11-06-2010 04:00:00 17.1 C 13.54 g/m*3 17.1 C 0 km/h
318 11-06-2010 05:00:00 17 C 13.57 g/m*3 17 C 0 km/h
319 11-06-2010 06:00:00 16.98 C 13.61 g/m*3 16.98 C 0 km/h
320 11-06-2010 07:00:00 16.88 C 13.65 g/m*3 16.88 C 0 km/h
321 11-06-2010 08:00:00 17.04 C 13.23 g/m*3 17.04 C 0 km/h
322 11-06-2010 09:00:00 19.32 C 13.65 g/m*3 19.32 C 0 km/h
323 11-06-2010 10:00:00 20.7 C 11.77 g/m*3 20.7 C 0 km/h
324 11-06-2010 11:00:00 22.76 C 10.83 g/m*3 22.76 C 0 km/h
325 11-06-2010 12:00:00 25.64 C 8.69 g/m*3 25.64 C 0 km/h
Sensor: Nr:Datum:Temp:Abs-Feuchte:Windchill:Wind:
Aussen-T/F 326 11-06-2010 13:00:00 27.58 C 7.71 g/m*3 27.58 C 0 km/h
327 11-06-2010 14:00:00 27.12 C 7.62 g/m*3 27.12 C 0 km/h
328 11-06-2010 15:00:00 28.68 C 7.34 g/m*3 28.68 C 0 km/h
329 11-06-2010 16:00:00 29.92 C 6.88 g/m*3 29.92 C 0 km/h
330 11-06-2010 17:00:00 30.58 C 6.32 g/m*3 30.58 C 0 km/h
331 11-06-2010 18:00:00 30.74 C 6.31 g/m*3 30.74 C 0 km/h
332 11-06-2010 19:00:00 30.7 C 6.49 g/m*3 30.7 C 0 km/h
333 11-06-2010 20:00:00 28.08 C 7.27 g/m*3 28.08 C 0 km/h
334 11-06-2010 21:00:00 24.48 C 8.49 g/m*3 24.48 C 0 km/h
335 11-06-2010 22:00:00 23.54 C 8.05 g/m*3 23.54 C 0 km/h
336 11-06-2010 23:00:00 22.86 C 7.67 g/m*3 22.86 C 0 km/h
337 12-06-2010 00:00:00 21.9 C 8.88 g/m*3 21.9 C 0 km/h
338 12-06-2010 01:00:00 20.94 C 9.78 g/m*3 20.94 C 0 km/h
339 12-06-2010 02:00:00 20.24 C 9.99 g/m*3 20.24 C 0 km/h
340 12-06-2010 03:00:00 19.74 C 10.14 g/m*3 19.74 C 0 km/h
341 12-06-2010 04:00:00 19.32 C 10.56 g/m*3 19.32 C 0 km/h
342 12-06-2010 05:00:00 18.72 C 11.12 g/m*3 18.72 C 0 km/h
343 12-06-2010 06:00:00 18.58 C 11.16 g/m*3 18.58 C 0 km/h
344 12-06-2010 07:00:00 18.38 C 12.16 g/m*3 18.38 C 0 km/h
345 12-06-2010 08:00:00 18.78 C 12.42 g/m*3 18.78 C 0 km/h
346 12-06-2010 09:00:00 19.28 C 11.6 g/m*3 19.28 C 0 km/h
347 12-06-2010 10:00:00 20.34 C 10.44 g/m*3 20.34 C 0 km/h
348 12-06-2010 11:00:00 22.44 C 9.59 g/m*3 22.44 C 0 km/h
349 12-06-2010 12:00:00 23.3 C 8.7 g/m*3 23.3 C 0 km/h
350 12-06-2010 13:00:00 24.16 C 8.47 g/m*3 24.16 C 0 km/h
Sensor: Nr:Datum:Temp:Abs-Feuchte:Windchill:Wind:
Aussen-T/F 351 12-06-2010 14:00:00 24.48 C 8.45 g/m*3 24.48 C 0 km/h
352 12-06-2010 15:00:00 22.98 C 9.24 g/m*3 22.98 C 0 km/h
353 12-06-2010 16:00:00 17.04 C 10.24 g/m*3 17.04 C 0 km/h
354 12-06-2010 17:00:00 14.22 C 9.85 g/m*3 14.22 C 0 km/h
355 12-06-2010 18:00:00 14.62 C 10.12 g/m*3 14.62 C 0 km/h
356 12-06-2010 19:00:00 14.82 C 9.79 g/m*3 14.82 C 0 km/h
357 12-06-2010 20:00:00 15.34 C 9.53 g/m*3 15.34 C 0 km/h
358 12-06-2010 21:00:00 14.98 C 9.4 g/m*3 14.98 C 0 km/h
359 12-06-2010 22:00:00 14.5 C 9.43 g/m*3 14.5 C 0 km/h
360 12-06-2010 23:00:00 13.28 C 8.98 g/m*3 13.28 C 0 km/h
361 13-06-2010 00:00:00 12.68 C 8.92 g/m*3 12.68 C 0 km/h
362 13-06-2010 01:00:00 13.3 C 9.4 g/m*3 13.3 C 0 km/h
363 13-06-2010 02:00:00 13.14 C 9.47 g/m*3 13.14 C 0 km/h
364 13-06-2010 03:00:00 12.16 C 9.3 g/m*3 12.16 C 0 km/h
365 13-06-2010 04:00:00 11.32 C 8.7 g/m*3 11.32 C 0 km/h
366 13-06-2010 05:00:00 10.82 C 8.33 g/m*3 10.82 C 0 km/h
367 13-06-2010 06:00:00 10.5 C 8.22 g/m*3 10.5 C 0 km/h
368 13-06-2010 07:00:00 11.38 C 8.65 g/m*3 11.38 C 0 km/h
369 13-06-2010 08:00:00 13.16 C 8.18 g/m*3 13.16 C 0 km/h
370 13-06-2010 09:00:00 15.84 C 7.64 g/m*3 15.84 C 0 km/h
371 13-06-2010 10:00:00 17.76 C 6.3 g/m*3 17.76 C 0 km/h
372 13-06-2010 11:00:00 19.54 C 5.92 g/m*3 19.54 C 0 km/h
373 13-06-2010 12:00:00 22.84 C 5.3 g/m*3 22.84 C 0 km/h
374 13-06-2010 13:00:00 24.8 C 4.87 g/m*3 24.8 C 0 km/h
375 13-06-2010 14:00:00 24.12 C 4.91 g/m*3 24.12 C 0 km/h
Sensor: Nr:Datum:Temp:Abs-Feuchte:Windchill:Wind:
Aussen-T/F 376 13-06-2010 15:00:00 24.62 C 4.69 g/m*3 24.62 C 0 km/h
377 13-06-2010 16:00:00 25.02 C 4.61 g/m*3 25.02 C 0 km/h
378 13-06-2010 17:00:00 26.06 C 4.89 g/m*3 26.06 C 0 km/h
379 13-06-2010 18:00:00 26.44 C 4.99 g/m*3 26.44 C 0 km/h
380 13-06-2010 19:00:00 25.06 C 4.85 g/m*3 25.06 C 0 km/h
381 13-06-2010 20:00:00 23.9 C 5.24 g/m*3 23.9 C 0 km/h
382 13-06-2010 21:00:00 19.64 C 6.36 g/m*3 19.64 C 0 km/h
383 13-06-2010 22:00:00 17.64 C 6.46 g/m*3 17.64 C 0 km/h
384 13-06-2010 23:00:00 16.28 C 6.93 g/m*3 16.28 C 0 km/h
385 14-06-2010 00:00:00 15.44 C 7.48 g/m*3 15.44 C 0 km/h
386 14-06-2010 01:00:00 14.52 C 7.37 g/m*3 14.52 C 0 km/h
387 14-06-2010 02:00:00 13.46 C 7.68 g/m*3 13.46 C 0 km/h
388 14-06-2010 03:00:00 12.66 C 7.86 g/m*3 12.66 C 0 km/h
389 14-06-2010 04:00:00 11.98 C 7.86 g/m*3 11.98 C 0 km/h
390 14-06-2010 05:00:00 11.48 C 7.65 g/m*3 11.48 C 0 km/h
391 14-06-2010 06:00:00 11.28 C 7.82 g/m*3 11.28 C 0 km/h
392 14-06-2010 07:00:00 11.7 C 8.22 g/m*3 11.7 C 0 km/h
393 14-06-2010 08:00:00 13.38 C 8.43 g/m*3 13.38 C 0 km/h
394 14-06-2010 09:00:00 16.82 C 8.04 g/m*3 16.82 C 0 km/h
395 14-06-2010 10:00:00 19.96 C 7.34 g/m*3 19.96 C 0 km/h
396 14-06-2010 11:00:00 22.92 C 6.51 g/m*3 22.92 C 0 km/h
397 14-06-2010 12:00:00 25.18 C 5.53 g/m*3 25.18 C 0 km/h
398 14-06-2010 13:00:00 26.34 C 5.21 g/m*3 26.34 C 0 km/h
399 14-06-2010 14:00:00 27.44 C 5.27 g/m*3 27.44 C 0 km/h
400 14-06-2010 15:00:00 26.9 C 5.32 g/m*3 26.9 C 0 km/h
Sensor: Nr:Datum:Temp:Abs-Feuchte:Windchill:Wind:
Aussen-T/F 401 14-06-2010 16:00:00 29.82 C 6.01 g/m*3 29.82 C 0 km/h
402 14-06-2010 17:00:00 29.14 C 5.79 g/m*3 29.14 C 0 km/h
403 14-06-2010 18:00:00 28.48 C 5.58 g/m*3 28.48 C 0 km/h
404 14-06-2010 19:00:00 25.2 C 6.29 g/m*3 25.2 C 0 km/h
405 14-06-2010 20:00:00 23.26 C 6.34 g/m*3 23.26 C 0 km/h
406 14-06-2010 21:00:00 20.06 C 6.14 g/m*3 20.06 C 0 km/h
407 14-06-2010 22:00:00 18.62 C 7.43 g/m*3 18.62 C 0 km/h
408 14-06-2010 23:00:00 18.36 C 8.57 g/m*3 18.36 C 0 km/h
409 15-06-2010 00:00:00 17.08 C 8.72 g/m*3 17.08 C 0 km/h
410 15-06-2010 01:00:00 16.02 C 9.03 g/m*3 16.02 C 0 km/h
411 15-06-2010 02:00:00 15.26 C 9.22 g/m*3 15.26 C 0 km/h
412 15-06-2010 03:00:00 14.64 C 9.31 g/m*3 14.64 C 0 km/h
413 15-06-2010 04:00:00 13.76 C 9.18 g/m*3 13.76 C 0 km/h
414 15-06-2010 05:00:00 13.48 C 9.32 g/m*3 13.48 C 0 km/h
415 15-06-2010 06:00:00 13.58 C 9.45 g/m*3 13.58 C 0 km/h
416 15-06-2010 07:00:00 14.92 C 9.83 g/m*3 14.92 C 0 km/h
417 15-06-2010 08:00:00 16.68 C 9.11 g/m*3 16.68 C 0 km/h
418 15-06-2010 09:00:00 17.7 C 8.36 g/m*3 17.7 C 0 km/h
419 15-06-2010 10:00:00 19.72 C 7.96 g/m*3 19.72 C 0 km/h
420 15-06-2010 11:00:00 20.7 C 8.03 g/m*3 20.7 C 0 km/h
421 15-06-2010 12:00:00 21.26 C 8.18 g/m*3 21.26 C 0 km/h
422 15-06-2010 13:00:00 21.56 C 7.72 g/m*3 21.56 C 0 km/h
423 15-06-2010 14:00:00 22.5 C 6.87 g/m*3 22.5 C 0 km/h
424 15-06-2010 15:00:00 23.76 C 6.01 g/m*3 23.76 C 0 km/h
425 15-06-2010 16:00:00 24.42 C 5.84 g/m*3 24.42 C 0 km/h
Sensor: Nr:Datum:Temp:Abs-Feuchte:Windchill:Wind:
Aussen-T/F 426 15-06-2010 17:00:00 24.16 C 5.62 g/m*3 24.16 C 0 km/h
427 15-06-2010 18:00:00 24.32 C 5.63 g/m*3 24.32 C 0 km/h
428 15-06-2010 19:00:00 23.36 C 5.45 g/m*3 23.36 C 0 km/h
429 15-06-2010 20:00:00 21.58 C 5.68 g/m*3 21.58 C 0 km/h
430 15-06-2010 21:00:00 19.18 C 5.63 g/m*3 19.18 C 0 km/h
431 15-06-2010 22:00:00 17.525 C 5.49 g/m*3 17.52 C 0 km/h
432 15-06-2010 23:00:00 16.16 C 5.92 g/m*3 16.16 C 0 km/h
433 16-06-2010 00:00:00 14.68 C 6.04 g/m*3 14.68 C 0 km/h
434 16-06-2010 01:00:00 13.4 C 6.21 g/m*3 13.4 C 0 km/h
435 16-06-2010 02:00:00 12.7 C 6.14 g/m*3 12.7 C 0 km/h
436 16-06-2010 03:00:00 11.82 C 6.09 g/m*3 11.82 C 0 km/h
437 16-06-2010 04:00:00 11.2 C 6.14 g/m*3 11.2 C 0 km/h
438 16-06-2010 05:00:00 10.66 C 6.19 g/m*3 10.66 C 0 km/h
439 16-06-2010 06:00:00 10.7 C 6.44 g/m*3 10.7 C 0 km/h
440 16-06-2010 07:00:00 11.82 C 6.79 g/m*3 11.82 C 0 km/h
441 16-06-2010 08:00:00 13.7 C 6.35 g/m*3 13.7 C 0 km/h
442 16-06-2010 09:00:00 15.96 C 5.74 g/m*3 15.96 C 0 km/h
443 16-06-2010 10:00:00 18.16 C 5.21 g/m*3 18.16 C 0 km/h
444 16-06-2010 11:00:00 20.48 C 4.59 g/m*3 20.48 C 0 km/h
445 16-06-2010 12:00:00 23.42 C 4.42 g/m*3 23.42 C 0 km/h
446 16-06-2010 13:00:00 26.24 C 4.93 g/m*3 26.24 C 0 km/h
447 16-06-2010 14:00:00 25.56 C 4.75 g/m*3 25.56 C 0 km/h
448 16-06-2010 15:00:00 26.16 C 4.91 g/m*3 26.16 C 0 km/h
449 16-06-2010 16:00:00 27.08 C 5.17 g/m*3 27.08 C 0 km/h
450 16-06-2010 17:00:00 26.94 C 5.13 g/m*3 26.94 C 0 km/h
Sensor: Nr:Datum:Temp:Abs-Feuchte:Windchill:Wind:
Aussen-T/F 451 16-06-2010 18:00:00 26.62 C 5.04 g/m*3 26.62 C 0 km/h
452 16-06-2010 19:00:00 25.08 C 4.81 g/m*3 25.08 C 0 km/h
453 16-06-2010 20:00:00 22.84 C 5.25 g/m*3 22.84 C 0 km/h
454 16-06-2010 21:00:00 20.76 C 5.85 g/m*3 20.76 C 0 km/h
455 16-06-2010 22:00:00 18.58 C 5.75 g/m*3 18.58 C 0 km/h
456 16-06-2010 23:00:00 17.32 C 5.9 g/m*3 17.32 C 0 km/h
457 17-06-2010 00:00:00 16.12 C 5.98 g/m*3 16.12 C 0 km/h
458 17-06-2010 01:00:00 15.38 C 6.06 g/m*3 15.38 C 0 km/h
459 17-06-2010 02:00:00 14.76 C 6.14 g/m*3 14.76 C 0 km/h
460 17-06-2010 03:00:00 14.48 C 6.11 g/m*3 14.48 C 0 km/h
461 17-06-2010 04:00:00 14.14 C 5.94 g/m*3 14.14 C 0 km/h
462 17-06-2010 05:00:00 13.62 C 5.84 g/m*3 13.62 C 0 km/h
463 17-06-2010 06:00:00 13.84 C 6.14 g/m*3 13.84 C 0 km/h
464 17-06-2010 07:00:00 15.14 C 6.29 g/m*3 15.14 C 0 km/h
465 17-06-2010 08:00:00 16.54 C 6.62 g/m*3 16.54 C 0 km/h
466 17-06-2010 09:00:00 14.46 C 8.06 g/m*3 14.46 C 0 km/h
467 17-06-2010 10:00:00 13.04 C 9.62 g/m*3 13.04 C 0 km/h
468 17-06-2010 11:00:00 13.8 C 10.51 g/m*3 13.8 C 0 km/h
469 17-06-2010 12:00:00 13.86 C 10.69 g/m*3 13.86 C 0 km/h
470 17-06-2010 13:00:00 13.78 C 10.81 g/m*3 13.78 C 0 km/h
471 17-06-2010 14:00:00 14.36 C 11.32 g/m*3 14.36 C 0 km/h
472 17-06-2010 15:00:00 16.58 C 12.22 g/m*3 16.58 C 0 km/h
473 17-06-2010 16:00:00 16.92 C 12.04 g/m*3 16.92 C 0 km/h
474 17-06-2010 17:00:00 16.7 C 11.82 g/m*3 16.7 C 0 km/h
475 17-06-2010 18:00:00 17.12 C 11.69 g/m*3 17.12 C 0 km/h
Sensor: Nr:Datum:Temp:Abs-Feuchte:Windchill:Wind:
Aussen-T/F 476 17-06-2010 19:00:00 16.62 C 11.97 g/m*3 16.62 C 0 km/h
477 17-06-2010 20:00:00 15.82 C 11.81 g/m*3 15.82 C 0 km/h
478 17-06-2010 21:00:00 15.46 C 11.74 g/m*3 15.46 C 0 km/h
479 17-06-2010 22:00:00 15.06 C 11.61 g/m*3 15.06 C 0 km/h
480 17-06-2010 23:00:00 14.46 C 11.29 g/m*3 14.46 C 0 km/h
481 18-06-2010 00:00:00 13.8 C 10.91 g/m*3 13.8 C 0 km/h
482 18-06-2010 01:00:00 14.04 C 11.12 g/m*3 14.04 C 0 km/h
483 18-06-2010 02:00:00 13.76 C 10.93 g/m*3 13.76 C 0 km/h
484 18-06-2010 03:00:00 13.48 C 10.72 g/m*3 13.48 C 0 km/h
485 18-06-2010 04:00:00 12.5 C 10 g/m*3 12.5 C 0 km/h
486 18-06-2010 05:00:00 12.1 C 9.76 g/m*3 12.1 C 0 km/h
487 18-06-2010 06:00:00 12.18 C 9.79 g/m*3 12.18 C 0 km/h
488 18-06-2010 07:00:00 12.74 C 9.86 g/m*3 12.74 C 0 km/h
489 18-06-2010 08:00:00 13.64 C 9.84 g/m*3 13.64 C 0 km/h
490 18-06-2010 09:00:00 15.48 C 9.74 g/m*3 15.48 C 0 km/h
491 18-06-2010 10:00:00 16.56 C 9.33 g/m*3 16.56 C 0 km/h
492 18-06-2010 11:00:00 16.18 C 8.93 g/m*3 16.18 C 0 km/h
493 18-06-2010 12:00:00 15.46 C 8.81 g/m*3 15.46 C 0 km/h
494 18-06-2010 13:00:00 15.84 C 8.58 g/m*3 15.84 C 0 km/h
495 18-06-2010 14:00:00 14.86 C 8.49 g/m*3 14.86 C 0 km/h
496 18-06-2010 15:00:00 14.94 C 8.41 g/m*3 14.94 C 0 km/h
497 18-06-2010 16:00:00 15.38 C 8.32 g/m*3 15.38 C 0 km/h
498 18-06-2010 17:00:00 19.16 C 7.27 g/m*3 19.16 C 0 km/h
499 18-06-2010 18:00:00 21.46 C 6.92 g/m*3 21.46 C 0 km/h
500 18-06-2010 19:00:00 19.52 C 7.23 g/m*3 19.52 C 0 km/h
Sensor: Nr:Datum:Temp:Abs-Feuchte:Windchill:Wind:
Aussen-T/F 501 18-06-2010 20:00:00 17.82 C 7.63 g/m*3 17.82 C 0 km/h
502 18-06-2010 21:00:00 15.02 C 9.53 g/m*3 15.02 C 0 km/h
503 18-06-2010 22:00:00 14.86 C 9.54 g/m*3 14.86 C 0 km/h
504 18-06-2010 23:00:00 14.8 C 7.52 g/m*3 14.8 C 0 km/h
505 19-06-2010 00:00:00 14.4 C 6.9 g/m*3 14.4 C 0 km/h
506 19-06-2010 01:00:00 13.6 C 7.13 g/m*3 13.6 C 0 km/h
507 19-06-2010 02:00:00 12.56 C 6.84 g/m*3 12.56 C 0 km/h
508 19-06-2010 03:00:00 12.08 C 6.68 g/m*3 12.08 C 0 km/h
509 19-06-2010 04:00:00 10.94 C 6.56 g/m*3 10.94 C 0 km/h
510 19-06-2010 05:00:00 11.14 C 6.58 g/m*3 11.14 C 0 km/h
511 19-06-2010 06:00:00 11.5 C 6.82 g/m*3 11.5 C 0 km/h
512 19-06-2010 07:00:00 11.86 C 6.7 g/m*3 11.86 C 0 km/h
513 19-06-2010 08:00:00 11.96 C 6.46 g/m*3 11.96 C 0 km/h
514 19-06-2010 09:00:00 12.48 C 6.61 g/m*3 12.48 C 0 km/h
515 19-06-2010 10:00:00 12.22 C 6.63 g/m*3 12.22 C 0 km/h
516 19-06-2010 11:00:00 14.74 C 6.26 g/m*3 14.74 C 0 km/h
517 19-06-2010 12:00:00 16.28 C 5.38 g/m*3 16.28 C 0 km/h
518 19-06-2010 13:00:00 16.96 C 5.98 g/m*3 16.96 C 0 km/h
519 19-06-2010 14:00:00 18.26 C 5.02 g/m*3 18.26 C 0 km/h
520 19-06-2010 15:00:00 18.32 C 4.82 g/m*3 18.32 C 0 km/h
521 19-06-2010 16:00:00 18.72 C 4.97 g/m*3 18.72 C 0 km/h
522 19-06-2010 17:00:00 17.66 C 5.12 g/m*3 17.66 C 0 km/h
523 19-06-2010 18:00:00 16.34 C 5.48 g/m*3 16.34 C 0 km/h
524 19-06-2010 19:00:00 16.68 C 5.37 g/m*3 16.68 C 0 km/h
525 19-06-2010 20:00:00 14.7 C 5.72 g/m*3 14.7 C 0 km/h
Sensor: Nr:Datum:Temp:Abs-Feuchte:Windchill:Wind:
Aussen-T/F 526 19-06-2010 21:00:00 14.14 C 6.18 g/m*3 14.14 C 0 km/h
527 19-06-2010 22:00:00 12.92 C 6.07 g/m*3 12.92 C 0 km/h
528 19-06-2010 23:00:00 12.08 C 6.23 g/m*3 12.08 C 0 km/h
529 20-06-2010 00:00:00 10.92 C 6.35 g/m*3 10.92 C 0 km/h
530 20-06-2010 01:00:00 10.46 C 5.96 g/m*3 10.46 C 0 km/h
531 20-06-2010 02:00:00 9.64 C 6.06 g/m*3 9.64 C 0 km/h
532 20-06-2010 03:00:00 9.46 C 6.57 g/m*3 9.46 C 0 km/h
533 20-06-2010 04:00:00 9.2 C 6.98 g/m*3 9.2 C 0 km/h
534 20-06-2010 05:00:00 9.34 C 7.12 g/m*3 9.34 C 0 km/h
535 20-06-2010 06:00:00 10.08 C 7.31 g/m*3 10.08 C 0 km/h
536 20-06-2010 07:00:00 10.44 C 7.38 g/m*3 10.44 C 0 km/h
537 20-06-2010 08:00:00 10.58 C 8.09 g/m*3 10.58 C 0 km/h
538 20-06-2010 09:00:00 12.48 C 8.02 g/m*3 12.48 C 0 km/h
539 20-06-2010 10:00:00 13.54 C 7.25 g/m*3 13.54 C 0 km/h
540 20-06-2010 11:00:00 13.44 C 6.95 g/m*3 13.44 C 0 km/h
541 20-06-2010 12:00:00 15.26 C 6.51 g/m*3 15.26 C 0 km/h
542 20-06-2010 13:00:00 16.36 C 6.4 g/m*3 16.36 C 0 km/h
543 20-06-2010 14:00:00 16.52 C 5.88 g/m*3 16.52 C 0 km/h
544 20-06-2010 15:00:00 17.86 C 5.88 g/m*3 17.86 C 0 km/h
545 20-06-2010 16:00:00 16.74 C 5.7 g/m*3 16.74 C 0 km/h
546 20-06-2010 17:00:00 16.32 C 5.78 g/m*3 16.32 C 0 km/h
547 20-06-2010 18:00:00 16.32 C 6.25 g/m*3 16.32 C 0 km/h
548 20-06-2010 19:00:00 15.68 C 6.01 g/m*3 15.68 C 0 km/h
549 20-06-2010 20:00:00 15.24 C 6.17 g/m*3 15.24 C 0 km/h
550 20-06-2010 21:00:00 14.58 C 6.67 g/m*3 14.58 C 0 km/h
Sensor: Nr:Datum:Temp:Abs-Feuchte:Windchill:Wind:
Aussen-T/F 551 20-06-2010 22:00:00 13.78 C 6.88 g/m*3 13.78 C 0 km/h
552 20-06-2010 23:00:00 12.64 C 6.92 g/m*3 12.64 C 0 km/h
553 21-06-2010 00:00:00 11.5 C 7.07 g/m*3 11.5 C 0 km/h
554 21-06-2010 01:00:00 10.94 C 7.02 g/m*3 10.94 C 0 km/h
555 21-06-2010 02:00:00 10.28 C 6.98 g/m*3 10.28 C 0 km/h
556 21-06-2010 03:00:00 9.64 C 6.81 g/m*3 9.64 C 0 km/h
557 21-06-2010 04:00:00 9.16 C 6.86 g/m*3 9.16 C 0 km/h
558 21-06-2010 05:00:00 8.68 C 6.89 g/m*3 8.68 C 0 km/h
559 21-06-2010 06:00:00 8.62 C 7.14 g/m*3 8.62 C 0 km/h
560 21-06-2010 07:00:00 10.1 C 7.34 g/m*3 10.1 C 0 km/h
561 21-06-2010 08:00:00 12.54 C 6.92 g/m*3 12.54 C 0 km/h
562 21-06-2010 09:00:00 13.74 C 6.1 g/m*3 13.74 C 0 km/h
563 21-06-2010 10:00:00 13.76 C 5.73 g/m*3 13.76 C 0 km/h
564 21-06-2010 11:00:00 14.68 C 5.38 g/m*3 14.68 C 0 km/h
565 21-06-2010 12:00:00 15.72 C 5.28 g/m*3 15.72 C 0 km/h
566 21-06-2010 13:00:00 16.7 C 5.14 g/m*3 16.7 C 0 km/h
567 21-06-2010 14:00:00 18.62 C 4.68 g/m*3 18.62 C 0 km/h
568 21-06-2010 15:00:00 18.66 C 4.57 g/m*3 18.66 C 0 km/h
569 21-06-2010 16:00:00 20.76 C 4.52 g/m*3 20.76 C 0 km/h
570 21-06-2010 17:00:00 19.58 C 4.62 g/m*3 19.58 C 0 km/h
571 21-06-2010 18:00:00 18.32 C 4.95 g/m*3 18.32 C 0 km/h
572 21-06-2010 19:00:00 17.54 C 5.14 g/m*3 17.54 C 0 km/h
573 21-06-2010 20:00:00 16.82 C 6.16 g/m*3 16.82 C 0 km/h
574 21-06-2010 21:00:00 15.24 C 6.19 g/m*3 15.24 C 0 km/h
575 21-06-2010 22:00:00 13.74 C 6.22 g/m*3 13.74 C 0 km/h
Sensor: Nr:Datum:Temp:Abs-Feuchte:Windchill:Wind:
Aussen-T/F 576 21-06-2010 23:00:00 13.32 C 6.48 g/m*3 13.32 C 0 km/h
577 22-06-2010 00:00:00 12.34 C 6.62 g/m*3 12.34 C 0 km/h
578 22-06-2010 01:00:00 12.24 C 7.01 g/m*3 12.24 C 0 km/h
579 22-06-2010 02:00:00 12.02 C 7.06 g/m*3 12.02 C 0 km/h
580 22-06-2010 03:00:00 11.82 C 7.29 g/m*3 11.82 C 0 km/h
581 22-06-2010 04:00:00 11.48 C 7.39 g/m*3 11.48 C 0 km/h
582 22-06-2010 05:00:00 11.44 C 7.49 g/m*3 11.44 C 0 km/h
583 22-06-2010 06:00:00 11.58 C 7.62 g/m*3 11.58 C 0 km/h
584 22-06-2010 07:00:00 12.24 C 7.68 g/m*3 12.24 C 0 km/h
585 22-06-2010 08:00:00 13 C 7.48 g/m*3 13 C 0 km/h
586 22-06-2010 09:00:00 15 C 7.36 g/m*3 15 C 0 km/h
587 22-06-2010 10:00:00 18.72 C 6.38 g/m*3 18.72 C 0 km/h
588 22-06-2010 11:00:00 20.24 C 5.82 g/m*3 20.24 C 0 km/h
589 22-06-2010 12:00:00 21.08 C 5.48 g/m*3 21.08 C 0 km/h
590 22-06-2010 13:00:00 21.68 C 5.3 g/m*3 21.68 C 0 km/h
591 22-06-2010 14:00:00 23.3 C 5.19 g/m*3 23.3 C 0 km/h
592 22-06-2010 15:00:00 24.54 C 4.93 g/m*3 24.54 C 0 km/h
593 22-06-2010 16:00:00 24.28 C 4.95 g/m*3 24.28 C 0 km/h
594 22-06-2010 17:00:00 23.3 C 5.19 g/m*3 23.3 C 0 km/h
595 22-06-2010 18:00:00 23.14 C 6.26 g/m*3 23.14 C 0 km/h
596 22-06-2010 19:00:00 23.48 C 6.29 g/m*3 23.48 C 0 km/h
597 22-06-2010 20:00:00 21.04 C 6.65 g/m*3 21.04 C 0 km/h
598 22-06-2010 21:00:00 18.02 C 6.46 g/m*3 18.02 C 0 km/h
599 22-06-2010 22:00:00 16.32 C 6.81 g/m*3 16.32 C 0 km/h
600 22-06-2010 23:00:00 14.98 C 6.99 g/m*3 14.98 C 0 km/h
Sensor: Nr:Datum:Temp:Abs-Feuchte:Windchill:Wind:
Aussen-T/F 601 23-06-2010 00:00:00 13.8 C 7.51 g/m*3 13.8 C 0 km/h
602 23-06-2010 01:00:00 12.68 C 7.72 g/m*3 12.68 C 0 km/h
603 23-06-2010 02:00:00 11.84 C 7.79 g/m*3 11.84 C 0 km/h
604 23-06-2010 03:00:00 11.02 C 7.72 g/m*3 11.02 C 0 km/h
605 23-06-2010 04:00:00 10.42 C 7.66 g/m*3 10.42 C 0 km/h
606 23-06-2010 05:00:00 10 C 7.69 g/m*3 10 C 0 km/h
607 23-06-2010 06:00:00 10.06 C 7.75 g/m*3 10.06 C 0 km/h
608 23-06-2010 07:00:00 10.64 C 7.77 g/m*3 10.64 C 0 km/h
609 23-06-2010 08:00:00 11.78 C 7.86 g/m*3 11.78 C 0 km/h
610 23-06-2010 09:00:00 14.16 C 7.82 g/m*3 14.16 C 0 km/h
611 23-06-2010 10:00:00 17.76 C 7.72 g/m*3 17.76 C 0 km/h
612 23-06-2010 11:00:00 21.04 C 7.42 g/m*3 21.04 C 0 km/h
613 23-06-2010 12:00:00 25.96 C 5.93 g/m*3 25.96 C 0 km/h
614 23-06-2010 13:00:00 28.04 C 5.56 g/m*3 28.04 C 0 km/h
615 23-06-2010 14:00:00 27.64 C 5.44 g/m*3 27.64 C 0 km/h
616 23-06-2010 15:00:00 28.64 C 5.69 g/m*3 28.64 C 0 km/h
617 23-06-2010 16:00:00 30.16 C 6.12 g/m*3 30.16 C 0 km/h
618 23-06-2010 17:00:00 29.46 C 5.89 g/m*3 29.46 C 0 km/h
619 23-06-2010 18:00:00 30.28 C 6.16 g/m*3 30.28 C 0 km/h
620 23-06-2010 19:00:00 29.14 C 5.79 g/m*3 29.14 C 0 km/h
621 23-06-2010 20:00:00 27.38 C 6.57 g/m*3 27.38 C 0 km/h
622 23-06-2010 21:00:00 22.68 C 6.86 g/m*3 22.68 C 0 km/h
623 23-06-2010 22:00:00 20.52 C 6.95 g/m*3 20.52 C 0 km/h
624 23-06-2010 23:00:00 19.12 C 7.25 g/m*3 19.12 C 0 km/h
625 24-06-2010 00:00:00 17.58 C 7.79 g/m*3 17.58 C 0 km/h
Sensor: Nr:Datum:Temp:Abs-Feuchte:Windchill:Wind:
Aussen-T/F 626 24-06-2010 01:00:00 16.08 C 8.24 g/m*3 16.08 C 0 km/h
627 24-06-2010 02:00:00 14.98 C 8.3 g/m*3 14.98 C 0 km/h
628 24-06-2010 03:00:00 14.18 C 8.34 g/m*3 14.18 C 0 km/h
629 24-06-2010 04:00:00 13.2 C 8.4 g/m*3 13.2 C 0 km/h
630 24-06-2010 05:00:00 12.62 C 8.42 g/m*3 12.62 C 0 km/h
631 24-06-2010 06:00:00 12.7 C 8.53 g/m*3 12.7 C 0 km/h
632 24-06-2010 07:00:00 13.42 C 8.43 g/m*3 13.42 C 0 km/h
633 24-06-2010 08:00:00 14.76 C 8.59 g/m*3 14.76 C 0 km/h
634 24-06-2010 09:00:00 17.46 C 8.57 g/m*3 17.46 C 0 km/h
635 24-06-2010 10:00:00 21.5 C 8.6 g/m*3 21.5 C 0 km/h
636 24-06-2010 11:00:00 24.96 C 7.72 g/m*3 24.96 C 0 km/h
637 24-06-2010 12:00:00 28.72 C 6.05 g/m*3 28.72 C 0 km/h
638 24-06-2010 13:00:00 30.34 C 6.18 g/m*3 30.34 C 0 km/h
639 24-06-2010 14:00:00 29.72 C 5.97 g/m*3 29.72 C 0 km/h
640 24-06-2010 15:00:00 30.9 C 6.37 g/m*3 30.9 C 0 km/h
641 24-06-2010 16:00:00 31.32 C 6.51 g/m*3 31.32 C 0 km/h
642 24-06-2010 17:00:00 32.64 C 6.99 g/m*3 32.64 C 0 km/h
643 24-06-2010 18:00:00 32.64 C 6.99 g/m*3 32.64 C 0 km/h
644 24-06-2010 19:00:00 31.72 C 6.65 g/m*3 31.72 C 0 km/h
645 24-06-2010 20:00:00 30.14 C 6.91 g/m*3 30.14 C 0 km/h
646 24-06-2010 21:00:00 25.24 C 7.09 g/m*3 25.24 C 0 km/h
647 24-06-2010 22:00:00 22.96 C 7.46 g/m*3 22.96 C 0 km/h
648 24-06-2010 23:00:00 21.38 C 7.72 g/m*3 21.38 C 0 km/h
649 25-06-2010 00:00:00 20.04 C 8.04 g/m*3 20.04 C 0 km/h
650 25-06-2010 01:00:00 18.86 C 8.37 g/m*3 18.86 C 0 km/h
Sensor: Nr:Datum:Temp:Abs-Feuchte:Windchill:Wind:
Aussen-T/F 651 25-06-2010 02:00:00 18.4 C 8.78 g/m*3 18.4 C 0 km/h
652 25-06-2010 03:00:00 17.06 C 9.12 g/m*3 17.06 C 0 km/h
653 25-06-2010 04:00:00 16.72 C 9.31 g/m*3 16.72 C 0 km/h
654 25-06-2010 05:00:00 16.16 C 9.35 g/m*3 16.16 C 0 km/h
655 25-06-2010 06:00:00 16.22 C 9.53 g/m*3 16.22 C 0 km/h
656 25-06-2010 07:00:00 17.12 C 9.68 g/m*3 17.12 C 0 km/h
657 25-06-2010 08:00:00 19.04 C 9.41 g/m*3 19.04 C 0 km/h
658 25-06-2010 09:00:00 20.38 C 9.15 g/m*3 20.38 C 0 km/h
659 25-06-2010 10:00:00 22.58 C 8.75 g/m*3 22.58 C 0 km/h
660 25-06-2010 11:00:00 24.32 C 8.24 g/m*3 24.32 C 0 km/h
661 25-06-2010 12:00:00 27.72 C 7.82 g/m*3 27.72 C 0 km/h
662 25-06-2010 13:00:00 29.04 C 7.25 g/m*3 29.04 C 0 km/h
663 25-06-2010 14:00:00 28.84 C 6.95 g/m*3 28.84 C 0 km/h
664 25-06-2010 15:00:00 29.6 C 6.47 g/m*3 29.6 C 0 km/h
665 25-06-2010 16:00:00 30.24 C 6.14 g/m*3 30.24 C 0 km/h
666 25-06-2010 17:00:00 30.7 C 6.3 g/m*3 30.7 C 0 km/h
667 25-06-2010 18:00:00 30.74 C 6.31 g/m*3 30.74 C 0 km/h
668 25-06-2010 19:00:00 30.2 C 6.19 g/m*3 30.2 C 0 km/h
669 25-06-2010 20:00:00 28.24 C 6.01 g/m*3 28.24 C 0 km/h
670 25-06-2010 21:00:00 24.98 C 7.08 g/m*3 24.98 C 0 km/h
671 25-06-2010 22:00:00 22.64 C 7.45 g/m*3 22.64 C 0 km/h
672 25-06-2010 23:00:00 21.04 C 7.79 g/m*3 21.04 C 0 km/h
673 26-06-2010 00:00:00 19.68 C 8.18 g/m*3 19.68 C 0 km/h
674 26-06-2010 01:00:00 18.6 C 8.31 g/m*3 18.6 C 0 km/h
675 26-06-2010 02:00:00 17.42 C 8.55 g/m*3 17.42 C 0 km/h
Sensor: Nr:Datum:Temp:Abs-Feuchte:Windchill:Wind:
Aussen-T/F 676 26-06-2010 03:00:00 16.46 C 8.66 g/m*3 16.46 C 0 km/h
677 26-06-2010 04:00:00 15.5 C 8.83 g/m*3 15.5 C 0 km/h
678 26-06-2010 05:00:00 14.76 C 8.92 g/m*3 14.76 C 0 km/h
679 26-06-2010 06:00:00 14.74 C 9.21 g/m*3 14.74 C 0 km/h
680 26-06-2010 07:00:00 15.38 C 9.32 g/m*3 15.38 C 0 km/h
681 26-06-2010 08:00:00 16.8 C 9.52 g/m*3 16.8 C 0 km/h
682 26-06-2010 09:00:00 19.56 C 9.6 g/m*3 19.56 C 0 km/h
683 26-06-2010 10:00:00 23.02 C 8.89 g/m*3 23.02 C 0 km/h
684 26-06-2010 11:00:00 26.18 C 7.23 g/m*3 26.18 C 0 km/h
685 26-06-2010 12:00:00 29.4 C 6.46 g/m*3 29.4 C 0 km/h
686 26-06-2010 13:00:00 31.08 C 6.43 g/m*3 31.08 C 0 km/h
687 26-06-2010 14:00:00 29.52 C 5.91 g/m*3 29.52 C 0 km/h
688 26-06-2010 15:00:00 30.66 C 6.28 g/m*3 30.66 C 0 km/h
689 26-06-2010 16:00:00 31.64 C 6.62 g/m*3 31.64 C 0 km/h
690 26-06-2010 17:00:00 32.84 C 7.06 g/m*3 32.84 C 0 km/h
691 26-06-2010 18:00:00 32.04 C 6.77 g/m*3 32.04 C 0 km/h
692 26-06-2010 19:00:00 31.24 C 6.48 g/m*3 31.24 C 0 km/h
693 26-06-2010 20:00:00 30.14 C 6.48 g/m*3 30.14 C 0 km/h
694 26-06-2010 21:00:00 25.86 C 7.1 g/m*3 25.86 C 0 km/h
695 26-06-2010 22:00:00 23.16 C 7.55 g/m*3 23.16 C 0 km/h
696 26-06-2010 23:00:00 21.56 C 7.83 g/m*3 21.56 C 0 km/h
697 27-06-2010 00:00:00 20.08 C 7.95 g/m*3 20.08 C 0 km/h
698 27-06-2010 01:00:00 18.76 C 8.32 g/m*3 18.76 C 0 km/h
699 27-06-2010 02:00:00 17.56 C 8.59 g/m*3 17.56 C 0 km/h
700 27-06-2010 03:00:00 16.64 C 8.84 g/m*3 16.64 C 0 km/h
Sensor: Nr:Datum:Temp:Abs-Feuchte:Windchill:Wind:
Aussen-T/F 701 27-06-2010 04:00:00 15.76 C 8.89 g/m*3 15.76 C 0 km/h
702 27-06-2010 05:00:00 15.04 C 8.92 g/m*3 15.04 C 0 km/h
703 27-06-2010 06:00:00 14.94 C 9.2 g/m*3 14.94 C 0 km/h
704 27-06-2010 07:00:00 15.36 C 9.36 g/m*3 15.36 C 0 km/h
705 27-06-2010 08:00:00 17.04 C 9.25 g/m*3 17.04 C 0 km/h
706 27-06-2010 09:00:00 20.34 C 9.41 g/m*3 20.34 C 0 km/h
707 27-06-2010 10:00:00 24.16 C 8.91 g/m*3 24.16 C 0 km/h
708 27-06-2010 11:00:00 27.22 C 7.82 g/m*3 27.22 C 0 km/h
709 27-06-2010 12:00:00 30.58 C 6.45 g/m*3 30.58 C 0 km/h
710 27-06-2010 13:00:00 31.9 C 6.72 g/m*3 31.9 C 0 km/h
711 27-06-2010 14:00:00 31.34 C 6.52 g/m*3 31.34 C 0 km/h
712 27-06-2010 15:00:00 32.44 C 6.91 g/m*3 32.44 C 0 km/h
713 27-06-2010 16:00:00 33.1 C 7.16 g/m*3 33.1 C 0 km/h
714 27-06-2010 17:00:00 33.26 C 7.22 g/m*3 33.26 C 0 km/h
715 27-06-2010 18:00:00 33.72 C 7.39 g/m*3 33.72 C 0 km/h
716 27-06-2010 19:00:00 33.38 C 7.26 g/m*3 33.38 C 0 km/h
717 27-06-2010 20:00:00 31.46 C 6.63 g/m*3 31.46 C 0 km/h
718 27-06-2010 21:00:00 26.92 C 7.23 g/m*3 26.92 C 0 km/h
719 27-06-2010 22:00:00 24.2 C 7.48 g/m*3 24.2 C 0 km/h
720 27-06-2010 23:00:00 22.66 C 7.94 g/m*3 22.66 C 0 km/h
721 28-06-2010 00:00:00 21 C 8.21 g/m*3 21 C 0 km/h
722 28-06-2010 01:00:00 19.78 C 8.19 g/m*3 19.78 C 0 km/h
723 28-06-2010 02:00:00 18.7 C 8.65 g/m*3 18.7 C 0 km/h
724 28-06-2010 03:00:00 17.78 C 8.76 g/m*3 17.78 C 0 km/h
725 28-06-2010 04:00:00 16.78 C 9.02 g/m*3 16.78 C 0 km/h
Sensor: Nr:Datum:Temp:Abs-Feuchte:Windchill:Wind:
Aussen-T/F 726 28-06-2010 05:00:00 16.1 C 9.21 g/m*3 16.1 C 0 km/h
727 28-06-2010 06:00:00 16.42 C 9.47 g/m*3 16.42 C 0 km/h
728 28-06-2010 07:00:00 16.8 C 9.69 g/m*3 16.8 C 0 km/h
729 28-06-2010 08:00:00 18.2 C 9.61 g/m*3 18.2 C 0 km/h
730 28-06-2010 09:00:00 21.24 C 9.7 g/m*3 21.24 C 0 km/h
731 28-06-2010 10:00:00 25.26 C 9.67 g/m*3 25.26 C 0 km/h
732 28-06-2010 11:00:00 28.96 C 8.88 g/m*3 28.96 C 0 km/h
733 28-06-2010 12:00:00 31.7 C 7.04 g/m*3 31.7 C 0 km/h
734 28-06-2010 13:00:00 33.08 C 7.15 g/m*3 33.08 C 0 km/h
735 28-06-2010 14:00:00 32.52 C 6.94 g/m*3 32.52 C 0 km/h
736 28-06-2010 15:00:00 32.42 C 6.9 g/m*3 32.42 C 0 km/h
737 28-06-2010 16:00:00 32.74 C 7.02 g/m*3 32.74 C 0 km/h
738 28-06-2010 17:00:00 33.18 C 7.19 g/m*3 33.18 C 0 km/h
739 28-06-2010 18:00:00 32.8 C 7.04 g/m*3 32.8 C 0 km/h
740 28-06-2010 19:00:00 31.6 C 6.61 g/m*3 31.6 C 0 km/h
741 28-06-2010 20:00:00 30.48 C 6.85 g/m*3 30.48 C 0 km/h
742 28-06-2010 21:00:00 27.64 C 7.2 g/m*3 27.64 C 0 km/h
743 28-06-2010 22:00:00 26.15 C 7.55 g/m*3 26.15 C 0 km/h
744 28-06-2010 23:00:00 24.98 C 8.28 g/m*3 24.98 C 0 km/h

Maximal/Minimal-Werte vom 29.05.2010 - 28.06.2010

Sensor Min Max Avg
Temp
(Aussen-T/F)
8.4 °C
31-05-2010  04:10:04
34.2 °C
28-06-2010  17:23:01
19.11 °C
Abs-Feuchte
(Aussen-T/F)
4.42 g/m*3
16-06-2010  12:00:00
14.34 g/m*3
10-06-2010  08:00:00
8.01 g/m*3
Windchill
(Aussen-T/F)
8.52 C
31-05-2010  04:00:00
33.72 C
27-06-2010  18:00:00
19.09 C

Die Daten stammen von einer Davis Vantage Pro 2 Wetter-Station und werden unter Linux mit der Software wview2wettercgi und aufbereitet. Alle Angaben erfolgen ohne Gewähr für ihre Vollständigkeit oder Richtigkeit.
Kontakt: Rainer Krienke krienke@uni-koblenz.de . Meine Webseiten an der Uni Koblenz oder privat.
Version: $Revision: 0.78 $